Coupe #1 HAYWOOD NORAM Cup Sprint MADSHUS-Combined | Zone4.ca

Coupe #1 HAYWOOD NORAM Cup Sprint MADSHUS-Combined

Date: Dec 11, 2004
Official  Results
Location: Forêt Montmorency
Host Club: CNMSA - SKIBEC

Jury
Technical Delegate:  Alan White 
Tech. Delegate Adj.:  Alain Vachon 
Chief of Competition:  Francine Laforce Bisson 
Coach:   
Coach:   
Obs. Time:
Wind Vel:   Wind Dir:
Air Temp: - 3 C Snow Temp:
Weather: Snow Cond: New

Open Women 5 km. Classic    
PL Bib Name SubCategory Rnk CCCLic Club Time Diff
1 65 Milaine Theriault Masters F/W 30-39 1/2 3823 National Team 2006 0:19:17.1  
2 58 Dasha Gaiazova Senior Women 1/28 12929 National Team 2006 0:19:27.7 +10.6
3 60 Amanda Ammar Junior A Women 1/39 12889 National Team 2014 0:19:49.6 +32.5
4 51 Madeleine Williams Senior Women 2/28 6409 National Team 2010 0:19:57.4 +40.3
5 57 Tara Whitten Senior Women 3/28 5866 X-C.com/ Edmonton Nordic 0:19:58.2 +41.1
6 56 Tasha Betcherman Senior Women 4/28 6418 Lappe Nordic 0:20:12.7 +55.6
7 59 Perianne Jones Junior A Women 2/39 12918 National Team 2014 0:20:17.1 +1:00.0
8 54 Christine Bisson Senior Women 5/28 5949 Club Nordique MSA 0:20:20.6 +1:03.5
9 66 Crystin Jaques Senior Women 6/28 12756 Banff Ski Runners 0:20:29.7 +1:12.6
10 52 Chandra Crawford Senior Women 7/28 13242 National Team 2006 0:20:35.6 +1:18.5
11 28 Liz  Stephen Junior A Women 3/39   Burke Mountain Academy 0:20:43.3 +1:26.2
12 55 Shayla Swanson Senior Women 8/28 5778 X-C.COM/FNSC 0:20:47.4 +1:30.3
13 33 Magi Scallion Senior Women 9/28 6345 BSR/Arctic Fox 0:20:48.8 +1:31.7
14 67 Sarah Daitch Senior Women 10/28 5981 Fort Smith 0:20:51.5 +1:34.4
15 62 Becky Laakso Senior Women 11/28 5090 National Team 2010 0:20:55.9 +1:38.8
16 19 Ida Sargent Junior A Women 4/39   Burke Mountain Academy 0:20:59.9 +1:42.8
17 64 Jacqui Benson Senior Women 12/28 6455 Caledonia Nordics/X-C.Com 0:21:01.6 +1:44.5
18 61 Sarah Peters Senior Women 13/28 6434 Strathcona Nordics 0:21:02.8 +1:45.7
19 21 Anja  Jokela Senior Women 14/28 5908355 U of Vermont 0:21:04.9 +1:47.8
20 4 Carina Hamel Senior Women 15/28   U of Vermont 0:21:09.7 +1:52.6
21 36 Claude Godbout Junior A Women 5/39 13134 Skibec 0:21:26.5 +2:09.4
22 63 Rhonda Sandau Senior Women 16/28 7556 Foothills Nordic 0:21:32.9 +2:15.8
23 53 Kerrie Fabius Senior Women 17/28 6672 NTDC 0:21:37.3 +2:20.2
24 32 Kim McMurtry Senior Women 18/28 6612 Foothills Nordic 0:21:41.2 +2:24.1
25 18 Alysson Marshall Junior A Women 6/39 13482 Larch Hills 0:21:46.7 +2:29.6
26 49 Karla Mika Senior Women 19/28 5378 Highlands Nordic 0:21:48.7 +2:31.6
27 10 Robyn Anderson Junior A Women 7/39 E5930839 Green Mnt Valley School 0:21:54.7 +2:37.6
28 50 Andrea Dupont Senior Women 20/28 5573 University of Waterloo 0:21:57.9 +2:40.8
29 15 Kate Crawford Senior Women 21/28 5570551 U of Vermont 0:21:59.3 +2:42.2
30 9 Brooke Gosling Senior Women 22/28 12494 Foothills Nordic 0:21:59.4 +2:42.3
31 12 Sophie Caldwell Junior A Women 8/39   Stratton Mountain School 0:21:59.9 +2:42.8
32 38 Claire Rennie Junior A Women 9/39 12903 Banff Ski Runners 0:22:06.1 +2:49.0
33 6 Hannah Dreissigacker Junior A Women 10/39 E5380282 Craftsbury Nordic 0:22:09.3 +2:52.2
34 34 Sara Hewitt Junior A Women 11/39 13450 Foothills Nordic 0:22:09.6 +2:52.5
35 14 Laura Spector Junior A Women 12/39 E5931316 Green Mnt Valley School 0:22:10.7 +2:53.6
36 27 Emilia DeMarchis Senior Women 23/28 5384987 U of Vermont 0:22:10.9 +2:53.8
37 23 Sheila Kealey Senior Women 24/28 3485 XC Ottawa 0:22:21.6 +3:04.5
38 37 Emilie Allard Senior Women 25/28 12799 Fondeurs-Laurentides 0:22:22.6 +3:05.5
39 31 Alison Madlung Junior A Women 13/39 12923 Strathcona Nordics 0:22:26.2 +3:09.1
40 35 Natasha Kullas Junior A Women 14/39 13079 Porcupine Ski Runners 0:22:30.6 +3:13.5
41 40 Cathy Jaques Junior A Women 15/39 12974 Banff Ski Runners 0:22:33.1 +3:16.0
42 39 Linnaea Kershaw Junior A Women 16/39 12729 Carleton University 0:22:33.9 +3:16.8
43 20 Parker Tyler Junior A Women 17/39   Stratton Mountain School 0:22:37.3 +3:20.2
44 69 Hannah Perry Junior A Women 18/39 13443 X-C.COM/FNSC 0:22:39.1 +3:22.0
45 2 Ali DeMarchis Junior A Women 19/39 E5475918 Green Mnt Valley School 0:22:49.3 +3:32.2
46 43 Catherine Bode Senior Women 26/28 12523 Big Thunder Nordic 0:22:54.1 +3:37.0
47 5 Emily Dreissigacker Junior A Women 20/39 E5380290 Craftsbury Nordic 0:22:54.8 +3:37.7
48 45 Mallory Deyne Junior A Women 21/39 13061 NTDC 0:22:59.0 +3:41.9
49 42 Marita Cockburn Junior A Women 22/39 13688 Nakkertok 0:23:04.2 +3:47.1
50 30 Whitney Coombs Junior A Women 23/39 E5346713 Stratton Mountain School 0:23:06.1 +3:49.0
51 29 Mae Foster Junior A Women 24/39   Stratton Mountain School 0:23:23.7 +4:06.6
52 13 Madeleine  Talkington Junior A Women 25/39   Stratton Mountain School 0:23:27.9 +4:10.8
53 11 Maryse L'Heureux Junior A Women 26/39 13635 Skiélite 0:23:29.5 +4:12.4
54 41 Gabrielle Morin Junior A Women 27/39 13127 Skiélite 0:23:38.3 +4:21.2
55 16 Sarah Dominick Masters F/W 30-39 2/2   MWSC 0:23:40.8 +4:23.7
56 47 Alysia Garmulewicz Junior A Women 28/39 13419 NTDC 0:23:41.3 +4:24.2
57 25 Maile Wade Junior A Women 29/39 5730726 U of Vermont 0:23:53.3 +4:36.2
58 68 Virginia Lehoux Gagnon Junior A Women 30/39 13680 Skiélite 0:23:55.9 +4:38.8
59 8 Karmen Whitham Junior A Women 31/39   Stratton Mountain School 0:24:08.7 +4:51.6
60 46 Anny Parent Junior A Women 32/39 13409 Skiélite 0:24:17.1 +5:00.0
61 24 Meagan Toussaint Junior A Women 33/39   Maine Winter SportsCenter 0:24:29.3 +5:12.2
61 44 Sophie Boyer Junior A Women 33/39 13278 Skiélite 0:24:29.3 +5:12.2
63 1 Alexandra Ambros Junior A Women 35/39   Burke Mountain Academy 0:24:32.8 +5:15.7
64 3 Kristin  Dewey Junior A Women 36/39   Stratton Mountain School 0:25:10.6 +5:53.5
65 48 Linnea Rudachyk Senior Women 27/28 13203 Carleton University 0:25:17.3 +6:00.2
66 22 Hilary McNamee Junior A Women 37/39   MWSC 0:25:48.0 +6:30.9
67 26 Justine Cyr Junior A Women 38/39   MWSC 0:25:56.2 +6:39.1
68 7 D'Arcy Baxter Junior A Women 39/39   Stratton Mountain School 0:26:00.3 +6:43.2
69 17 Kelsy Bouchard Senior Women 28/28 5968987 U of Vermont 0:26:54.8 +7:37.7
DNF 259 Julie Bisson Senior Women * 12545 Club Nordique MSA *** ***


Results are posted through an automated system by licenced clubs. For inquires about result corrections please contact the race organizer.

Copyright 2021 - Zone4 Systems zone4.ca       Privacy Policy     Delivery/Refund Policy     Terms of Service    Contact Zone4